Airport ID:K63S
Update Time (UTC):01/02/2023 00:16
Wind Speed (Knots):0
Wind Direction (Magnetic):30
Temperature (°C):-6
Dew Point (°C):-11
Humidity (%):71
Altimeter (inHg):30.19
Density Altitude (Feet):
Visibility:10+
Clouds (Hundreds of feet):FEW070 SCT080 SCT090
Present Weather:
METAR:METAR K63S 010015Z 00000KT 10SM FEW070 SCT080 SCT090 M06/M11 A3020 RMK A01 NARROW RNWYS 01-19 DUE TO 2-3 FOOT HIGH SNOW BERM ALONG RNWY LENGTH, USE CAUTION

The data displayed is for advisory purposes only and is not to be used for flight planning or operations.